Terminal Aerodrome Forecast
Issued by NWS

Home | Current Version | Previous Version | Text Only | Print | Product List | Glossary On
Versions: 1 2 3 4 5 6 7 8 9 10 11 12
000
FTUS46 KMTR 290500
TAFMRY
TAF
KMRY 290536Z 2906/3006 11004KT P6SM FEW200
     FM291800 31006KT P6SM SCT200
     FM300500 12003KT P6SM SKC=

USA.gov is the U.S. government's official web portal to all federal, state and local government web resources and services.